sensor_id;sensor_type;location;lat;lon;timestamp;pressure;altitude;pressure_sealevel;temperature;humidity
36092;BME280;22147;52.388;13.390;2023-08-12T00:00:16;101272.53;;;14.42;100.00
36092;BME280;22147;52.388;13.390;2023-08-12T00:02:47;101275.16;;;14.38;100.00
36092;BME280;22147;52.388;13.390;2023-08-12T00:05:17;101275.38;;;14.33;100.00
36092;BME280;22147;52.388;13.390;2023-08-12T00:07:49;101280.50;;;14.31;100.00
36092;BME280;22147;52.388;13.390;2023-08-12T00:10:19;101281.53;;;14.27;100.00
36092;BME280;22147;52.388;13.390;2023-08-12T00:12:49;101275.78;;;14.23;100.00
36092;BME280;22147;52.388;13.390;2023-08-12T00:15:17;101284.34;;;14.18;100.00
36092;BME280;22147;52.388;13.390;2023-08-12T00:17:46;101285.03;;;14.15;100.00
36092;BME280;22147;52.388;13.390;2023-08-12T00:20:15;101279.31;;;14.11;100.00
36092;BME280;22147;52.388;13.390;2023-08-12T00:22:46;101269.63;;;14.09;100.00
36092;BME280;22147;52.388;13.390;2023-08-12T00:25:15;101277.53;;;14.07;100.00
36092;BME280;22147;52.388;13.390;2023-08-12T00:27:43;101271.47;;;14.04;100.00
36092;BME280;22147;52.388;13.390;2023-08-12T00:30:11;101271.78;;;14.03;100.00
36092;BME280;22147;52.388;13.390;2023-08-12T00:32:39;101271.31;;;14.01;100.00
36092;BME280;22147;52.388;13.390;2023-08-12T00:35:08;101271.69;;;13.99;100.00
36092;BME280;22147;52.388;13.390;2023-08-12T00:37:36;101267.22;;;13.98;100.00
36092;BME280;22147;52.388;13.390;2023-08-12T00:40:05;101257.22;;;13.97;100.00
36092;BME280;22147;52.388;13.390;2023-08-12T00:42:39;101254.91;;;13.99;100.00
36092;BME280;22147;52.388;13.390;2023-08-12T00:45:11;101255.72;;;14.00;100.00
36092;BME280;22147;52.388;13.390;2023-08-12T00:47:44;101249.66;;;13.98;100.00
36092;BME280;22147;52.388;13.390;2023-08-12T00:50:15;101249.66;;;13.98;100.00
36092;BME280;22147;52.388;13.390;2023-08-12T00:52:45;101243.59;;;13.96;100.00
36092;BME280;22147;52.388;13.390;2023-08-12T00:55:17;101240.81;;;13.96;100.00
36092;BME280;22147;52.388;13.390;2023-08-12T00:57:48;101240.47;;;13.97;100.00
36092;BME280;22147;52.388;13.390;2023-08-12T01:00:19;101235.69;;;13.98;100.00
36092;BME280;22147;52.388;13.390;2023-08-12T01:02:51;101230.13;;;13.98;100.00
36092;BME280;22147;52.388;13.390;2023-08-12T01:05:22;101223.38;;;13.99;100.00
36092;BME280;22147;52.388;13.390;2023-08-12T01:07:53;101223.38;;;13.99;100.00
36092;BME280;22147;52.388;13.390;2023-08-12T01:10:32;101227.31;;;13.98;100.00
36092;BME280;22147;52.388;13.390;2023-08-12T01:13:34;101221.75;;;13.98;100.00
36092;BME280;22147;52.388;13.390;2023-08-12T01:16:13;101213.69;;;13.96;100.00
36092;BME280;22147;52.388;13.390;2023-08-12T01:18:49;101214.88;;;13.95;100.00
36092;BME280;22147;52.388;13.390;2023-08-12T01:21:24;101220.78;;;13.94;100.00
36092;BME280;22147;52.388;13.390;2023-08-12T01:23:57;101215.53;;;13.92;100.00
36092;BME280;22147;52.388;13.390;2023-08-12T01:26:27;101222.28;;;13.91;100.00
36092;BME280;22147;52.388;13.390;2023-08-12T01:28:57;101212.94;;;13.87;100.00
36092;BME280;22147;52.388;13.390;2023-08-12T01:31:43;101214.09;;;13.86;100.00
36092;BME280;22147;52.388;13.390;2023-08-12T01:37:59;101209.53;;;13.81;100.00
36092;BME280;22147;52.388;13.390;2023-08-12T01:40:36;101198.69;;;13.80;100.00
36092;BME280;22147;52.388;13.390;2023-08-12T01:43:09;101201.03;;;13.78;100.00
36092;BME280;22147;52.388;13.390;2023-08-12T01:45:41;101199.38;;;13.77;100.00
36092;BME280;22147;52.388;13.390;2023-08-12T01:48:11;101202.19;;;13.77;100.00
36092;BME280;22147;52.388;13.390;2023-08-12T01:50:42;101197.75;;;13.76;100.00
36092;BME280;22147;52.388;13.390;2023-08-12T01:53:17;101190.88;;;13.73;100.00
36092;BME280;22147;52.388;13.390;2023-08-12T01:55:49;101186.44;;;13.72;100.00
36092;BME280;22147;52.388;13.390;2023-08-12T01:58:21;101180.88;;;13.72;100.00
36092;BME280;22147;52.388;13.390;2023-08-12T02:00:51;101184.00;;;13.71;100.00
36092;BME280;22147;52.388;13.390;2023-08-12T02:03:21;101183.66;;;13.72;100.00
36092;BME280;22147;52.388;13.390;2023-08-12T02:05:52;101185.28;;;13.73;100.00
36092;BME280;22147;52.388;13.390;2023-08-12T02:08:22;101178.88;;;13.73;100.00
36092;BME280;22147;52.388;13.390;2023-08-12T02:10:52;101172.50;;;13.72;100.00
36092;BME280;22147;52.388;13.390;2023-08-12T02:13:22;101169.84;;;13.76;100.00
36092;BME280;22147;52.388;13.390;2023-08-12T02:15:52;101165.56;;;13.78;100.00
36092;BME280;22147;52.388;13.390;2023-08-12T02:18:23;101164.88;;;13.81;100.00
36092;BME280;22147;52.388;13.390;2023-08-12T02:20:53;101170.25;;;13.87;100.00
36092;BME280;22147;52.388;13.390;2023-08-12T02:23:23;101162.38;;;13.89;100.00
36092;BME280;22147;52.388;13.390;2023-08-12T02:25:53;101159.22;;;13.90;100.00
36092;BME280;22147;52.388;13.390;2023-08-12T02:28:24;101152.16;;;13.93;100.00
36092;BME280;22147;52.388;13.390;2023-08-12T02:30:54;101145.53;;;13.97;100.00
36092;BME280;22147;52.388;13.390;2023-08-12T02:33:27;101146.13;;;14.03;100.00
36092;BME280;22147;52.388;13.390;2023-08-12T02:35:57;101142.34;;;14.08;100.00
36092;BME280;22147;52.388;13.390;2023-08-12T02:38:27;101137.69;;;14.12;100.00
36092;BME280;22147;52.388;13.390;2023-08-12T02:40:58;101145.25;;;14.11;100.00
36092;BME280;22147;52.388;13.390;2023-08-12T02:43:28;101139.66;;;14.11;100.00
36092;BME280;22147;52.388;13.390;2023-08-12T02:45:58;101142.13;;;14.13;100.00
36092;BME280;22147;52.388;13.390;2023-08-12T02:48:28;101139.81;;;14.15;100.00
36092;BME280;22147;52.388;13.390;2023-08-12T02:50:59;101135.03;;;14.15;100.00
36092;BME280;22147;52.388;13.390;2023-08-12T02:53:29;101131.41;;;14.15;100.00
36092;BME280;22147;52.388;13.390;2023-08-12T02:55:57;101127.81;;;14.14;100.00
36092;BME280;22147;52.388;13.390;2023-08-12T02:58:26;101134.22;;;14.15;100.00
36092;BME280;22147;52.388;13.390;2023-08-12T03:00:55;101133.03;;;14.16;100.00
36092;BME280;22147;52.388;13.390;2023-08-12T03:03:22;101128.28;;;14.16;100.00
36092;BME280;22147;52.388;13.390;2023-08-12T03:05:51;101116.66;;;14.14;100.00
36092;BME280;22147;52.388;13.390;2023-08-12T03:08:19;101132.56;;;14.14;100.00
36092;BME280;22147;52.388;13.390;2023-08-12T03:10:48;101122.09;;;14.11;100.00
36092;BME280;22147;52.388;13.390;2023-08-12T03:13:16;101130.34;;;14.07;100.00
36092;BME280;22147;52.388;13.390;2023-08-12T03:15:44;101126.59;;;14.03;100.00
36092;BME280;22147;52.388;13.390;2023-08-12T03:18:13;101114.47;;;13.99;100.00
36092;BME280;22147;52.388;13.390;2023-08-12T03:20:41;101118.75;;;13.96;100.00
36092;BME280;22147;52.388;13.390;2023-08-12T03:23:10;101118.66;;;13.93;100.00
36092;BME280;22147;52.388;13.390;2023-08-12T03:25:38;101117.34;;;13.90;100.00
36092;BME280;22147;52.388;13.390;2023-08-12T03:28:07;101120.00;;;13.87;100.00
36092;BME280;22147;52.388;13.390;2023-08-12T03:30:35;101115.09;;;13.83;100.00
36092;BME280;22147;52.388;13.390;2023-08-12T03:33:04;101107.91;;;13.82;100.00
36092;BME280;22147;52.388;13.390;2023-08-12T03:35:32;101105.09;;;13.82;100.00
36092;BME280;22147;52.388;13.390;2023-08-12T03:38:00;101102.31;;;13.82;100.00
36092;BME280;22147;52.388;13.390;2023-08-12T03:40:29;101098.34;;;13.83;100.00
36092;BME280;22147;52.388;13.390;2023-08-12T03:42:57;101102.09;;;13.88;100.00
36092;BME280;22147;52.388;13.390;2023-08-12T03:45:25;101103.75;;;13.89;100.00
36092;BME280;22147;52.388;13.390;2023-08-12T03:47:54;101095.38;;;13.89;100.00
36092;BME280;22147;52.388;13.390;2023-08-12T03:50:22;101104.06;;;13.87;100.00
36092;BME280;22147;52.388;13.390;2023-08-12T03:52:51;101088.13;;;13.88;100.00
36092;BME280;22147;52.388;13.390;2023-08-12T03:55:19;101092.56;;;13.89;100.00
36092;BME280;22147;52.388;13.390;2023-08-12T03:57:47;101085.81;;;13.90;100.00
36092;BME280;22147;52.388;13.390;2023-08-12T04:00:16;101089.09;;;13.92;100.00
36092;BME280;22147;52.388;13.390;2023-08-12T04:02:44;101088.28;;;13.91;100.00
36092;BME280;22147;52.388;13.390;2023-08-12T04:05:13;101081.50;;;13.92;100.00
36092;BME280;22147;52.388;13.390;2023-08-12T04:07:42;101085.16;;;13.93;100.00
36092;BME280;22147;52.388;13.390;2023-08-12T04:10:10;101076.41;;;13.94;100.00
36092;BME280;22147;52.388;13.390;2023-08-12T04:12:40;101081.66;;;13.96;100.00
36092;BME280;22147;52.388;13.390;2023-08-12T04:15:09;101076.06;;;13.96;100.00
36092;BME280;22147;52.388;13.390;2023-08-12T04:17:38;101078.06;;;13.95;100.00
36092;BME280;22147;52.388;13.390;2023-08-12T04:20:11;101081.31;;;13.97;100.00
36092;BME280;22147;52.388;13.390;2023-08-12T04:22:41;101084.13;;;13.97;100.00
36092;BME280;22147;52.388;13.390;2023-08-12T04:25:11;101086.06;;;13.97;100.00
36092;BME280;22147;52.388;13.390;2023-08-12T04:27:41;101081.31;;;13.97;100.00
36092;BME280;22147;52.388;13.390;2023-08-12T04:30:12;101077.16;;;14.03;100.00
36092;BME280;22147;52.388;13.390;2023-08-12T04:32:43;101082.53;;;14.09;100.00
36092;BME280;22147;52.388;13.390;2023-08-12T04:35:13;101082.66;;;14.12;100.00
36092;BME280;22147;52.388;13.390;2023-08-12T04:37:44;101075.69;;;14.18;100.00
36092;BME280;22147;52.388;13.390;2023-08-12T04:40:14;101072.81;;;14.27;100.00
36092;BME280;22147;52.388;13.390;2023-08-12T04:42:44;101080.75;;;14.37;100.00
36092;BME280;22147;52.388;13.390;2023-08-12T04:45:14;101072.75;;;14.48;100.00
36092;BME280;22147;52.388;13.390;2023-08-12T04:47:45;101078.59;;;14.55;100.00
36092;BME280;22147;52.388;13.390;2023-08-12T04:50:15;101080.00;;;14.61;100.00
36092;BME280;22147;52.388;13.390;2023-08-12T04:52:45;101078.63;;;14.68;100.00
36092;BME280;22147;52.388;13.390;2023-08-12T04:55:16;101080.13;;;14.77;100.00
36092;BME280;22147;52.388;13.390;2023-08-12T04:57:46;101072.47;;;14.86;100.00
36092;BME280;22147;52.388;13.390;2023-08-12T05:00:17;101074.44;;;14.98;100.00
36092;BME280;22147;52.388;13.390;2023-08-12T05:02:47;101072.81;;;15.10;100.00
36092;BME280;22147;52.388;13.390;2023-08-12T05:05:17;101072.34;;;15.20;100.00
36092;BME280;22147;52.388;13.390;2023-08-12T05:07:48;101072.78;;;15.34;100.00
36092;BME280;22147;52.388;13.390;2023-08-12T05:10:18;101061.09;;;15.44;100.00
36092;BME280;22147;52.388;13.390;2023-08-12T05:12:48;101059.56;;;15.59;100.00
36092;BME280;22147;52.388;13.390;2023-08-12T05:15:20;101062.00;;;15.73;100.00
36092;BME280;22147;52.388;13.390;2023-08-12T05:17:51;101063.56;;;15.86;100.00
36092;BME280;22147;52.388;13.390;2023-08-12T05:20:21;101061.31;;;16.04;100.00
36092;BME280;22147;52.388;13.390;2023-08-12T05:22:52;101064.94;;;16.21;100.00
36092;BME280;22147;52.388;13.390;2023-08-12T05:25:20;101070.59;;;16.37;100.00
36092;BME280;22147;52.388;13.390;2023-08-12T05:27:49;101066.69;;;16.57;100.00
36092;BME280;22147;52.388;13.390;2023-08-12T05:30:17;101065.97;;;16.76;100.00
36092;BME280;22147;52.388;13.390;2023-08-12T05:32:45;101061.75;;;16.98;100.00
36092;BME280;22147;52.388;13.390;2023-08-12T05:35:14;101050.22;;;17.19;100.00
36092;BME280;22147;52.388;13.390;2023-08-12T05:37:42;101047.59;;;17.46;100.00
36092;BME280;22147;52.388;13.390;2023-08-12T05:40:11;101034.41;;;17.66;100.00
36092;BME280;22147;52.388;13.390;2023-08-12T05:42:39;101049.94;;;17.79;100.00
36092;BME280;22147;52.388;13.390;2023-08-12T05:45:08;101054.53;;;17.87;100.00
36092;BME280;22147;52.388;13.390;2023-08-12T05:47:36;101053.06;;;17.94;100.00
36092;BME280;22147;52.388;13.390;2023-08-12T05:50:05;101053.28;;;17.85;100.00
36092;BME280;22147;52.388;13.390;2023-08-12T05:52:36;101045.66;;;17.85;100.00
36092;BME280;22147;52.388;13.390;2023-08-12T05:55:04;101042.50;;;17.87;100.00
36092;BME280;22147;52.388;13.390;2023-08-12T05:57:32;101040.50;;;17.87;100.00
36092;BME280;22147;52.388;13.390;2023-08-12T06:00:01;101052.38;;;17.81;100.00
36092;BME280;22147;52.388;13.390;2023-08-12T06:02:29;101043.13;;;17.80;100.00
36092;BME280;22147;52.388;13.390;2023-08-12T06:04:58;101051.66;;;17.84;100.00
36092;BME280;22147;52.388;13.390;2023-08-12T06:07:26;101052.94;;;17.86;100.00
36092;BME280;22147;52.388;13.390;2023-08-12T06:09:54;101053.88;;;17.94;100.00
36092;BME280;22147;52.388;13.390;2023-08-12T06:12:23;101048.47;;;18.05;100.00
36092;BME280;22147;52.388;13.390;2023-08-12T06:14:51;101053.41;;;18.11;100.00
36092;BME280;22147;52.388;13.390;2023-08-12T06:17:20;101052.34;;;18.20;100.00
36092;BME280;22147;52.388;13.390;2023-08-12T06:19:48;101052.56;;;18.30;100.00
36092;BME280;22147;52.388;13.390;2023-08-12T06:22:16;101046.41;;;18.44;100.00
36092;BME280;22147;52.388;13.390;2023-08-12T06:24:45;101046.31;;;18.64;100.00
36092;BME280;22147;52.388;13.390;2023-08-12T06:27:13;101055.66;;;18.91;100.00
36092;BME280;22147;52.388;13.390;2023-08-12T06:29:42;101052.25;;;19.05;100.00
36092;BME280;22147;52.388;13.390;2023-08-12T06:32:10;101061.25;;;19.14;100.00
36092;BME280;22147;52.388;13.390;2023-08-12T06:34:42;101059.03;;;19.27;100.00
36092;BME280;22147;52.388;13.390;2023-08-12T06:37:10;101052.69;;;19.33;100.00
36092;BME280;22147;52.388;13.390;2023-08-12T06:39:38;101054.78;;;19.40;100.00
36092;BME280;22147;52.388;13.390;2023-08-12T06:42:07;101054.91;;;19.47;100.00
36092;BME280;22147;52.388;13.390;2023-08-12T06:44:35;101047.78;;;19.57;100.00
36092;BME280;22147;52.388;13.390;2023-08-12T06:47:05;101045.50;;;19.66;100.00
36092;BME280;22147;52.388;13.390;2023-08-12T06:49:36;101049.53;;;19.69;100.00
36092;BME280;22147;52.388;13.390;2023-08-12T06:52:06;101046.34;;;19.70;99.53
36092;BME280;22147;52.388;13.390;2023-08-12T06:54:36;101049.22;;;19.74;100.00
36092;BME280;22147;52.388;13.390;2023-08-12T06:57:07;101050.88;;;19.75;100.00
36092;BME280;22147;52.388;13.390;2023-08-12T06:59:38;101056.16;;;19.53;98.64
36092;BME280;22147;52.388;13.390;2023-08-12T07:02:08;101041.69;;;19.55;100.00
36092;BME280;22147;52.388;13.390;2023-08-12T07:04:39;101043.72;;;19.55;100.00
36092;BME280;22147;52.388;13.390;2023-08-12T07:07:09;101041.75;;;19.59;100.00
36092;BME280;22147;52.388;13.390;2023-08-12T07:09:39;101034.16;;;19.63;100.00
36092;BME280;22147;52.388;13.390;2023-08-12T07:12:09;101030.31;;;19.75;100.00
36092;BME280;22147;52.388;13.390;2023-08-12T07:14:40;101034.66;;;20.02;100.00
36092;BME280;22147;52.388;13.390;2023-08-12T07:17:10;101027.00;;;20.40;99.05
36092;BME280;22147;52.388;13.390;2023-08-12T07:19:40;101030.72;;;20.96;95.09
36092;BME280;22147;52.388;13.390;2023-08-12T07:22:11;101024.25;;;21.51;91.53
36092;BME280;22147;52.388;13.390;2023-08-12T07:24:41;101030.81;;;21.84;89.80
36092;BME280;22147;52.388;13.390;2023-08-12T07:27:11;101033.31;;;22.07;89.25
36092;BME280;22147;52.388;13.390;2023-08-12T07:29:41;101029.75;;;22.24;85.27
36092;BME280;22147;52.388;13.390;2023-08-12T07:32:12;101028.56;;;22.36;85.65
36092;BME280;22147;52.388;13.390;2023-08-12T07:34:42;101028.19;;;22.48;89.02
36092;BME280;22147;52.388;13.390;2023-08-12T07:37:12;101023.66;;;22.19;85.39
36092;BME280;22147;52.388;13.390;2023-08-12T07:39:43;101019.56;;;21.98;84.15
36092;BME280;22147;52.388;13.390;2023-08-12T07:42:13;101024.78;;;21.92;85.51
36092;BME280;22147;52.388;13.390;2023-08-12T07:44:43;101023.97;;;21.88;86.72
36092;BME280;22147;52.388;13.390;2023-08-12T07:47:14;101022.75;;;21.86;86.95
36092;BME280;22147;52.388;13.390;2023-08-12T07:49:45;101024.03;;;22.03;90.32
36092;BME280;22147;52.388;13.390;2023-08-12T07:52:15;101018.38;;;22.06;86.68
36092;BME280;22147;52.388;13.390;2023-08-12T07:54:45;101021.22;;;22.06;84.74
36092;BME280;22147;52.388;13.390;2023-08-12T07:57:15;101017.66;;;22.38;87.04
36092;BME280;22147;52.388;13.390;2023-08-12T07:59:46;101013.22;;;22.55;82.03
36092;BME280;22147;52.388;13.390;2023-08-12T08:02:16;101014.03;;;22.59;83.25
36092;BME280;22147;52.388;13.390;2023-08-12T08:04:46;101011.63;;;22.75;83.42
36092;BME280;22147;52.388;13.390;2023-08-12T08:07:19;101018.09;;;22.90;83.75
36092;BME280;22147;52.388;13.390;2023-08-12T08:09:51;101010.78;;;22.89;82.73
36092;BME280;22147;52.388;13.390;2023-08-12T08:12:22;101006.75;;;22.90;81.68
36092;BME280;22147;52.388;13.390;2023-08-12T08:14:52;101012.00;;;22.88;81.14
36092;BME280;22147;52.388;13.390;2023-08-12T08:17:20;101014.84;;;22.85;81.73
36092;BME280;22147;52.388;13.390;2023-08-12T08:19:49;101012.00;;;22.95;84.11
36092;BME280;22147;52.388;13.390;2023-08-12T08:22:17;101001.09;;;22.69;80.99
36092;BME280;22147;52.388;13.390;2023-08-12T08:24:45;101004.34;;;22.67;83.38
36092;BME280;22147;52.388;13.390;2023-08-12T08:27:14;101008.78;;;22.68;84.11
36092;BME280;22147;52.388;13.390;2023-08-12T08:29:42;101010.00;;;22.53;83.81
36092;BME280;22147;52.388;13.390;2023-08-12T08:32:11;101014.03;;;22.38;85.45
36092;BME280;22147;52.388;13.390;2023-08-12T08:34:39;101012.78;;;22.24;86.37
36092;BME280;22147;52.388;13.390;2023-08-12T08:37:08;101016.00;;;22.19;90.30
36092;BME280;22147;52.388;13.390;2023-08-12T08:39:36;101007.88;;;22.10;93.87
36092;BME280;22147;52.388;13.390;2023-08-12T08:42:10;101009.06;;;21.99;98.43
36092;BME280;22147;52.388;13.390;2023-08-12T08:44:43;101007.84;;;21.89;98.16
36092;BME280;22147;52.388;13.390;2023-08-12T08:47:19;101000.94;;;21.79;97.13
36092;BME280;22147;52.388;13.390;2023-08-12T08:49:57;100997.28;;;21.75;100.00
36092;BME280;22147;52.388;13.390;2023-08-12T08:52:28;101005.38;;;21.77;100.00
36092;BME280;22147;52.388;13.390;2023-08-12T08:55:01;101009.81;;;21.81;100.00
36092;BME280;22147;52.388;13.390;2023-08-12T08:57:37;101013.50;;;21.89;100.00
36092;BME280;22147;52.388;13.390;2023-08-12T09:00:18;101016.34;;;21.96;100.00
36092;BME280;22147;52.388;13.390;2023-08-12T09:02:50;101022.81;;;22.00;100.00
36092;BME280;22147;52.388;13.390;2023-08-12T09:05:23;101027.25;;;22.05;100.00
36092;BME280;22147;52.388;13.390;2023-08-12T09:07:54;101013.91;;;22.05;96.17
36092;BME280;22147;52.388;13.390;2023-08-12T09:10:27;101011.53;;;22.18;100.00
36092;BME280;22147;52.388;13.390;2023-08-12T09:12:59;100996.63;;;22.50;98.84
36092;BME280;22147;52.388;13.390;2023-08-12T09:15:29;100992.59;;;23.01;89.20
36092;BME280;22147;52.388;13.390;2023-08-12T09:18:00;101011.56;;;23.29;84.05
36092;BME280;22147;52.388;13.390;2023-08-12T09:20:30;101010.28;;;23.48;82.94
36092;BME280;22147;52.388;13.390;2023-08-12T09:23:02;101010.22;;;23.77;86.08
36092;BME280;22147;52.388;13.390;2023-08-12T09:25:32;101014.78;;;24.23;80.86
36092;BME280;22147;52.388;13.390;2023-08-12T09:28:03;101002.31;;;24.69;79.05
36092;BME280;22147;52.388;13.390;2023-08-12T09:30:34;101001.00;;;24.81;75.93
36092;BME280;22147;52.388;13.390;2023-08-12T09:33:07;100999.22;;;24.94;75.28
36092;BME280;22147;52.388;13.390;2023-08-12T09:35:41;100990.44;;;24.82;78.09
36092;BME280;22147;52.388;13.390;2023-08-12T09:38:13;100998.66;;;24.69;78.68
36092;BME280;22147;52.388;13.390;2023-08-12T09:40:46;100992.66;;;24.60;80.18
36092;BME280;22147;52.388;13.390;2023-08-12T09:43:17;100994.38;;;24.50;78.93
36092;BME280;22147;52.388;13.390;2023-08-12T09:45:48;100990.00;;;24.31;80.21
36092;BME280;22147;52.388;13.390;2023-08-12T09:48:18;100989.31;;;24.12;80.71
36092;BME280;22147;52.388;13.390;2023-08-12T09:50:49;100988.13;;;24.10;80.72
36092;BME280;22147;52.388;13.390;2023-08-12T09:53:23;100986.88;;;24.14;81.32
36092;BME280;22147;52.388;13.390;2023-08-12T09:56:11;100983.47;;;24.37;83.58
36092;BME280;22147;52.388;13.390;2023-08-12T09:58:43;100982.25;;;24.38;80.45
36092;BME280;22147;52.388;13.390;2023-08-12T10:01:21;100977.78;;;24.41;78.49
36092;BME280;22147;52.388;13.390;2023-08-12T10:03:54;100981.09;;;24.32;77.71
36092;BME280;22147;52.388;13.390;2023-08-12T10:06:25;100977.72;;;24.45;80.61
36092;BME280;22147;52.388;13.390;2023-08-12T10:08:57;100981.34;;;24.52;79.73
36092;BME280;22147;52.388;13.390;2023-08-12T10:11:28;100975.25;;;24.57;81.94
36092;BME280;22147;52.388;13.390;2023-08-12T10:14:00;100968.00;;;24.49;81.01
36092;BME280;22147;52.388;13.390;2023-08-12T10:16:32;100962.34;;;24.42;80.64
36092;BME280;22147;52.388;13.390;2023-08-12T10:19:05;100956.41;;;24.26;82.27
36092;BME280;22147;52.388;13.390;2023-08-12T10:21:37;100953.59;;;24.26;84.81
36092;BME280;22147;52.388;13.390;2023-08-12T10:24:10;100954.47;;;24.12;84.82
36092;BME280;22147;52.388;13.390;2023-08-12T10:26:42;100947.63;;;24.09;86.23
36092;BME280;22147;52.388;13.390;2023-08-12T10:29:13;100948.41;;;24.10;87.23
36092;BME280;22147;52.388;13.390;2023-08-12T10:31:45;100947.94;;;24.18;88.66
36092;BME280;22147;52.388;13.390;2023-08-12T10:34:22;100933.28;;;24.27;89.39
36092;BME280;22147;52.388;13.390;2023-08-12T10:37:02;100933.34;;;24.24;89.18
36092;BME280;22147;52.388;13.390;2023-08-12T10:39:34;100927.59;;;24.27;88.73
36092;BME280;22147;52.388;13.390;2023-08-12T10:42:05;100937.84;;;24.17;87.28
36092;BME280;22147;52.388;13.390;2023-08-12T10:44:57;100952.25;;;24.37;91.36
36092;BME280;22147;52.388;13.390;2023-08-12T10:47:28;100962.03;;;24.29;88.95
36092;BME280;22147;52.388;13.390;2023-08-12T10:49:59;100957.16;;;24.33;87.24
36092;BME280;22147;52.388;13.390;2023-08-12T10:52:32;100961.16;;;24.39;90.28
36092;BME280;22147;52.388;13.390;2023-08-12T10:55:20;100955.56;;;24.32;87.47
36092;BME280;22147;52.388;13.390;2023-08-12T10:57:58;100941.31;;;24.36;90.67
36092;BME280;22147;52.388;13.390;2023-08-12T11:00:29;100940.50;;;24.39;88.25
36092;BME280;22147;52.388;13.390;2023-08-12T11:02:58;100937.66;;;24.39;89.95
36092;BME280;22147;52.388;13.390;2023-08-12T11:05:37;100941.44;;;24.22;87.94
36092;BME280;22147;52.388;13.390;2023-08-12T11:08:08;100941.00;;;24.27;89.57
36092;BME280;22147;52.388;13.390;2023-08-12T11:10:39;100947.16;;;24.18;89.25
36092;BME280;22147;52.388;13.390;2023-08-12T11:13:10;100944.28;;;24.22;86.77
36092;BME280;22147;52.388;13.390;2023-08-12T11:15:43;100939.44;;;24.18;87.57
36092;BME280;22147;52.388;13.390;2023-08-12T11:18:19;100937.41;;;24.19;87.84
36092;BME280;22147;52.388;13.390;2023-08-12T11:20:50;100926.97;;;24.05;86.08
36092;BME280;22147;52.388;13.390;2023-08-12T11:23:22;100923.69;;;24.10;87.09
36092;BME280;22147;52.388;13.390;2023-08-12T11:25:53;100938.34;;;24.02;88.24
36092;BME280;22147;52.388;13.390;2023-08-12T11:28:24;100947.31;;;23.93;90.25
36092;BME280;22147;52.388;13.390;2023-08-12T11:30:55;100953.88;;;23.79;90.19
36092;BME280;22147;52.388;13.390;2023-08-12T11:33:26;100946.69;;;23.56;89.27
36092;BME280;22147;52.388;13.390;2023-08-12T11:35:56;100954.00;;;23.47;94.41
36092;BME280;22147;52.388;13.390;2023-08-12T11:38:27;100951.63;;;23.42;98.14
36092;BME280;22147;52.388;13.390;2023-08-12T11:41:01;100956.94;;;23.25;99.01
36092;BME280;22147;52.388;13.390;2023-08-12T11:43:32;100962.63;;;23.18;99.91
36092;BME280;22147;52.388;13.390;2023-08-12T11:46:03;100944.41;;;23.23;100.00
36092;BME280;22147;52.388;13.390;2023-08-12T11:48:31;100954.09;;;23.22;100.00
36092;BME280;22147;52.388;13.390;2023-08-12T11:51:00;100947.63;;;23.17;100.00
36092;BME280;22147;52.388;13.390;2023-08-12T11:53:28;100950.91;;;23.12;100.00
36092;BME280;22147;52.388;13.390;2023-08-12T11:55:56;100948.06;;;23.09;100.00
36092;BME280;22147;52.388;13.390;2023-08-12T11:58:25;100954.16;;;23.04;100.00
36092;BME280;22147;52.388;13.390;2023-08-12T12:01:05;100948.81;;;23.24;100.00
36092;BME280;22147;52.388;13.390;2023-08-12T12:03:36;100952.38;;;23.49;100.00
36092;BME280;22147;52.388;13.390;2023-08-12T12:06:06;100953.59;;;23.52;99.82
36092;BME280;22147;52.388;13.390;2023-08-12T12:08:38;100948.34;;;23.50;98.54
36092;BME280;22147;52.388;13.390;2023-08-12T12:11:09;100946.69;;;23.53;97.56
36092;BME280;22147;52.388;13.390;2023-08-12T12:13:39;100948.72;;;23.49;98.42
36092;BME280;22147;52.388;13.390;2023-08-12T12:16:10;100940.69;;;23.40;100.00
36092;BME280;22147;52.388;13.390;2023-08-12T12:18:41;100939.09;;;23.32;99.54
36092;BME280;22147;52.388;13.390;2023-08-12T12:21:20;100945.19;;;23.27;100.00
36092;BME280;22147;52.388;13.390;2023-08-12T12:23:52;100937.50;;;23.24;100.00
36092;BME280;22147;52.388;13.390;2023-08-12T12:26:23;100931.88;;;23.20;100.00
36092;BME280;22147;52.388;13.390;2023-08-12T12:28:53;100910.81;;;23.21;100.00
36092;BME280;22147;52.388;13.390;2023-08-12T12:31:26;100903.16;;;23.14;100.00
36092;BME280;22147;52.388;13.390;2023-08-12T12:33:57;100878.50;;;23.11;100.00
36092;BME280;22147;52.388;13.390;2023-08-12T12:36:27;100866.78;;;22.95;100.00
36092;BME280;22147;52.388;13.390;2023-08-12T12:38:57;100841.69;;;22.97;100.00
36092;BME280;22147;52.388;13.390;2023-08-12T12:41:28;100844.53;;;22.93;100.00
36092;BME280;22147;52.388;13.390;2023-08-12T12:44:02;100828.31;;;23.12;100.00
36092;BME280;22147;52.388;13.390;2023-08-12T12:46:33;100831.88;;;23.27;99.84
36092;BME280;22147;52.388;13.390;2023-08-12T12:49:03;100834.59;;;23.45;98.07
36092;BME280;22147;52.388;13.390;2023-08-12T12:51:34;100835.66;;;23.69;97.14
36092;BME280;22147;52.388;13.390;2023-08-12T12:54:04;100841.28;;;23.80;94.26